createdAt,value
2022-09-15T00:00:28.711Z,19.60
2022-09-15T00:02:55.887Z,19.60
2022-09-15T00:05:22.603Z,19.60
2022-09-15T00:07:49.366Z,19.60
2022-09-15T00:10:16.943Z,19.60
2022-09-15T00:12:43.579Z,19.60
2022-09-15T00:15:14.686Z,19.60
2022-09-15T00:17:42.798Z,19.60
2022-09-15T00:20:10.049Z,19.50
2022-09-15T00:22:36.705Z,19.50
2022-09-15T00:25:03.556Z,19.50
2022-09-15T00:27:32.103Z,19.50
2022-09-15T00:30:00.304Z,19.50
2022-09-15T00:32:27.609Z,19.50
2022-09-15T00:34:54.335Z,19.50
2022-09-15T00:37:21.759Z,19.50
2022-09-15T00:39:48.947Z,19.50
2022-09-15T00:42:22.291Z,19.50
2022-09-15T00:44:55.641Z,19.40
2022-09-15T00:47:29.856Z,19.50
2022-09-15T00:50:10.891Z,19.50
2022-09-15T00:52:56.774Z,19.50
2022-09-15T00:55:32.415Z,19.50
2022-09-15T00:58:03.556Z,19.50
2022-09-15T01:00:30.865Z,19.40
2022-09-15T01:02:59.006Z,19.40
2022-09-15T01:05:34.675Z,19.40
2022-09-15T01:08:06.027Z,19.40
2022-09-15T01:10:36.596Z,19.40
2022-09-15T01:13:05.864Z,19.40
2022-09-15T01:15:52.763Z,19.40
2022-09-15T01:18:27.321Z,19.40
2022-09-15T01:20:59.974Z,19.30
2022-09-15T01:23:38.410Z,19.40
2022-09-15T01:26:33.679Z,19.30
2022-09-15T01:29:25.136Z,19.40
2022-09-15T01:32:26.054Z,19.40
2022-09-15T01:35:05.046Z,19.40
2022-09-15T01:37:37.594Z,19.40
2022-09-15T01:40:06.541Z,19.40
2022-09-15T01:42:34.865Z,19.40
2022-09-15T01:45:08.697Z,19.40
2022-09-15T01:47:36.508Z,19.40
2022-09-15T01:50:10.336Z,19.40
2022-09-15T01:52:40.970Z,19.40
2022-09-15T01:55:16.719Z,19.40
2022-09-15T01:57:43.402Z,19.30
2022-09-15T02:00:10.815Z,19.30
2022-09-15T02:02:50.877Z,19.30
2022-09-15T02:05:33.898Z,19.30
2022-09-15T02:08:27.774Z,19.30
2022-09-15T02:11:04.275Z,19.30
2022-09-15T02:13:39.124Z,19.30
2022-09-15T02:16:20.012Z,19.20
2022-09-15T02:18:56.541Z,19.30
2022-09-15T02:22:02.739Z,19.30
2022-09-15T02:24:42.819Z,19.30
2022-09-15T02:27:15.769Z,19.30
2022-09-15T02:29:45.114Z,19.20
2022-09-15T02:32:14.894Z,19.10
2022-09-15T02:34:46.124Z,19.20
2022-09-15T02:37:14.145Z,19.20
2022-09-15T02:39:47.300Z,19.20
2022-09-15T02:42:26.152Z,19.20
2022-09-15T02:44:53.414Z,19.20
2022-09-15T02:47:20.232Z,19.20
2022-09-15T02:49:46.910Z,19.20
2022-09-15T02:52:13.970Z,19.20
2022-09-15T02:54:40.778Z,19.20
2022-09-15T02:57:07.666Z,19.20
2022-09-15T02:59:53.257Z,19.10
2022-09-15T03:02:20.565Z,19.10
2022-09-15T03:04:48.118Z,19.10
2022-09-15T03:07:15.013Z,19.20
2022-09-15T03:09:42.016Z,19.20
2022-09-15T03:12:09.340Z,19.10
2022-09-15T03:14:36.375Z,19.20
2022-09-15T03:17:03.505Z,19.20
2022-09-15T03:19:30.926Z,19.10
2022-09-15T03:21:57.832Z,19.20
2022-09-15T03:24:24.482Z,19.10
2022-09-15T03:26:51.206Z,19.10
2022-09-15T03:29:18.101Z,19.10
2022-09-15T03:31:44.900Z,19.10
2022-09-15T03:34:11.701Z,19.20
2022-09-15T03:36:38.523Z,19.20
2022-09-15T03:39:05.188Z,19.10
2022-09-15T03:41:31.909Z,19.10
2022-09-15T03:43:58.584Z,19.10
2022-09-15T03:46:25.256Z,19.10
2022-09-15T03:48:51.970Z,19.10
2022-09-15T03:51:18.655Z,19.10
2022-09-15T03:53:45.363Z,19.10
2022-09-15T03:56:28.346Z,19.10
2022-09-15T03:58:55.070Z,19.00
2022-09-15T04:01:23.087Z,19.10
2022-09-15T04:03:51.372Z,19.10
2022-09-15T04:06:20.890Z,19.10
2022-09-15T04:08:48.677Z,19.10
2022-09-15T04:11:16.312Z,19.10
2022-09-15T04:13:44.023Z,19.00
2022-09-15T04:16:19.825Z,19.00
2022-09-15T04:18:46.808Z,19.00
2022-09-15T04:21:16.333Z,19.10
2022-09-15T04:23:43.603Z,19.10
2022-09-15T04:26:31.205Z,19.10
2022-09-15T04:29:03.044Z,19.10
2022-09-15T04:31:31.785Z,19.10
2022-09-15T04:33:59.340Z,19.00
2022-09-15T04:36:28.422Z,19.00
2022-09-15T04:38:56.189Z,19.00
2022-09-15T04:41:23.174Z,19.00
2022-09-15T04:43:50.106Z,18.90
2022-09-15T04:46:18.438Z,19.00
2022-09-15T04:48:46.210Z,19.00
2022-09-15T04:51:15.845Z,19.00
2022-09-15T04:53:43.443Z,18.90
2022-09-15T04:56:21.548Z,18.90
2022-09-15T04:58:50.750Z,18.90
2022-09-15T05:01:20.787Z,18.90
2022-09-15T05:03:47.645Z,18.90
2022-09-15T05:06:16.414Z,18.90
2022-09-15T05:08:43.336Z,19.00
2022-09-15T05:11:12.184Z,19.00
2022-09-15T05:13:40.455Z,19.00
2022-09-15T05:16:15.664Z,19.00
2022-09-15T05:18:44.215Z,19.00
2022-09-15T05:21:13.374Z,18.90
2022-09-15T05:23:40.163Z,18.60
2022-09-15T05:26:09.207Z,18.30
2022-09-15T05:28:37.418Z,18.20
2022-09-15T05:31:18.368Z,18.10
2022-09-15T05:33:46.168Z,18.00
2022-09-15T05:36:17.388Z,18.00
2022-09-15T05:38:44.852Z,18.10
2022-09-15T05:41:18.458Z,18.30
2022-09-15T05:43:47.005Z,18.50
2022-09-15T05:46:14.854Z,18.50
2022-09-15T05:48:43.084Z,18.50
2022-09-15T05:51:11.254Z,18.60
2022-09-15T05:53:38.569Z,18.60
2022-09-15T05:56:08.222Z,18.60
2022-09-15T05:58:35.075Z,18.60
2022-09-15T06:01:11.273Z,18.60
2022-09-15T06:03:37.930Z,18.60
2022-09-15T06:06:06.264Z,18.70
2022-09-15T06:08:42.547Z,18.60
2022-09-15T06:11:19.357Z,18.60
2022-09-15T06:13:46.877Z,18.60
2022-09-15T06:16:16.082Z,18.50
2022-09-15T06:18:42.882Z,18.50
2022-09-15T06:21:12.566Z,18.30
2022-09-15T06:23:40.128Z,18.50
2022-09-15T06:26:11.163Z,18.50
2022-09-15T06:28:39.226Z,18.60
2022-09-15T06:31:11.303Z,18.60
2022-09-15T06:33:40.939Z,18.40
2022-09-15T06:36:07.749Z,18.40
2022-09-15T06:38:34.374Z,18.60
2022-09-15T06:41:01.267Z,18.70
2022-09-15T06:43:28.018Z,18.80
2022-09-15T06:46:02.337Z,18.70
2022-09-15T06:48:29.042Z,18.70
2022-09-15T06:50:56.087Z,18.70
2022-09-15T06:53:22.859Z,18.50
2022-09-15T06:55:49.959Z,18.50
2022-09-15T06:58:16.727Z,18.40
2022-09-15T07:00:43.644Z,18.80
2022-09-15T07:03:10.917Z,18.70
2022-09-15T07:05:37.779Z,18.50
2022-09-15T07:08:04.681Z,18.60
2022-09-15T07:10:31.439Z,18.50
2022-09-15T07:12:59.010Z,18.30
2022-09-15T07:15:27.404Z,18.30
2022-09-15T07:17:54.284Z,17.90
2022-09-15T07:20:21.581Z,17.80
2022-09-15T07:22:48.360Z,18.00
2022-09-15T07:25:15.156Z,17.70
2022-09-15T07:27:42.112Z,17.10
2022-09-15T07:30:09.449Z,17.00
2022-09-15T07:32:36.208Z,17.50
2022-09-15T07:35:03.233Z,17.20
2022-09-15T07:37:29.879Z,17.50
2022-09-15T07:39:56.710Z,17.60
2022-09-15T07:42:23.507Z,17.60
2022-09-15T07:44:50.216Z,17.50
2022-09-15T07:47:16.914Z,17.30
2022-09-15T07:49:43.768Z,17.20
2022-09-15T07:52:10.510Z,17.70
2022-09-15T07:54:37.365Z,17.80
2022-09-15T07:57:06.377Z,18.00
2022-09-15T07:59:33.151Z,18.00
2022-09-15T08:01:59.889Z,18.00
2022-09-15T08:04:26.677Z,18.20
2022-09-15T08:06:53.602Z,18.50
2022-09-15T08:09:20.610Z,18.30
2022-09-15T08:11:47.285Z,18.10
2022-09-15T08:14:14.025Z,18.40
2022-09-15T08:16:42.748Z,18.60
2022-09-15T08:19:09.418Z,18.70
2022-09-15T08:21:36.095Z,18.00
2022-09-15T08:24:02.950Z,18.30
2022-09-15T08:26:30.926Z,18.10
2022-09-15T08:28:58.055Z,18.40
2022-09-15T08:31:25.867Z,18.00
2022-09-15T08:33:55.036Z,18.30
2022-09-15T08:36:22.664Z,18.60
2022-09-15T08:38:50.445Z,18.70
2022-09-15T08:41:32.257Z,18.50
2022-09-15T08:44:19.584Z,18.60
2022-09-15T08:46:54.410Z,18.80
2022-09-15T08:49:47.454Z,18.40
2022-09-15T08:52:23.599Z,18.50
2022-09-15T08:54:53.591Z,19.00
2022-09-15T08:57:23.711Z,19.00
2022-09-15T08:59:50.429Z,18.60
2022-09-15T09:02:46.496Z,19.20
2022-09-15T09:05:49.543Z,19.30
2022-09-15T09:08:36.943Z,19.10
2022-09-15T09:11:29.522Z,19.30
2022-09-15T09:14:09.384Z,19.30
2022-09-15T09:17:08.946Z,19.40
2022-09-15T09:19:46.381Z,19.40
2022-09-15T09:22:17.653Z,19.40
2022-09-15T09:24:46.606Z,19.50
2022-09-15T09:27:18.290Z,19.60
2022-09-15T09:29:50.271Z,19.80
2022-09-15T09:32:24.521Z,19.80
2022-09-15T09:35:03.800Z,19.40
2022-09-15T09:37:30.885Z,19.40
2022-09-15T09:39:57.603Z,19.40
2022-09-15T09:42:30.182Z,19.50
2022-09-15T09:44:57.019Z,19.60
2022-09-15T09:47:30.082Z,19.40
2022-09-15T09:49:56.762Z,19.10
2022-09-15T09:52:37.780Z,18.90
2022-09-15T09:55:25.324Z,18.90
2022-09-15T09:57:52.102Z,19.00
2022-09-15T10:00:34.673Z,18.80
2022-09-15T10:03:14.151Z,18.80
2022-09-15T10:05:41.476Z,18.90
2022-09-15T10:08:15.762Z,19.00
2022-09-15T10:10:53.726Z,19.10
2022-09-15T10:13:21.744Z,19.10
2022-09-15T10:15:58.652Z,19.00
2022-09-15T10:18:39.623Z,18.90
2022-09-15T10:21:09.590Z,19.00
2022-09-15T10:23:36.381Z,18.80
2022-09-15T10:26:34.703Z,18.80
2022-09-15T10:29:19.672Z,18.90
2022-09-15T10:31:46.587Z,18.90
2022-09-15T10:34:28.095Z,18.90
2022-09-15T10:37:03.831Z,19.00
2022-09-15T10:39:56.663Z,18.70
2022-09-15T10:42:50.556Z,18.80
2022-09-15T10:45:37.941Z,19.00
2022-09-15T10:48:14.443Z,19.00
2022-09-15T10:50:58.015Z,18.90
2022-09-15T10:53:45.528Z,19.00
2022-09-15T10:56:44.121Z,19.10
2022-09-15T10:59:13.749Z,19.20
2022-09-15T11:01:59.768Z,19.10
2022-09-15T11:04:38.598Z,19.10
2022-09-15T11:07:27.143Z,19.20
2022-09-15T11:10:24.792Z,19.20
2022-09-15T11:13:39.730Z,19.30
2022-09-15T11:16:44.715Z,19.20
2022-09-15T11:19:25.607Z,19.10
2022-09-15T11:21:54.696Z,19.30
2022-09-15T11:24:21.367Z,19.50
2022-09-15T11:26:53.460Z,19.50
2022-09-15T11:29:31.297Z,19.40
2022-09-15T11:32:06.620Z,19.20
2022-09-15T11:34:54.301Z,19.00
2022-09-15T11:37:25.435Z,19.20
2022-09-15T11:40:03.728Z,19.20
2022-09-15T11:42:36.130Z,19.20
2022-09-15T11:45:03.879Z,19.30
2022-09-15T11:47:40.310Z,19.50
2022-09-15T11:50:37.878Z,19.50
2022-09-15T11:53:26.696Z,19.40
2022-09-15T11:55:56.995Z,19.30
2022-09-15T11:58:48.337Z,19.50
2022-09-15T12:01:24.491Z,19.60
2022-09-15T12:03:59.569Z,19.60
2022-09-15T12:06:45.712Z,19.60
2022-09-15T12:09:16.333Z,19.70
2022-09-15T12:11:54.774Z,19.70
2022-09-15T12:14:32.270Z,19.60
2022-09-15T12:16:59.792Z,19.50
2022-09-15T12:19:33.287Z,19.50
2022-09-15T12:22:18.187Z,19.40
2022-09-15T12:25:01.391Z,19.60
2022-09-15T12:27:28.947Z,19.50
2022-09-15T12:29:57.935Z,19.60
2022-09-15T12:32:28.970Z,19.60
2022-09-15T12:34:57.104Z,19.50
2022-09-15T12:37:46.242Z,19.60
2022-09-15T12:40:33.616Z,19.70
2022-09-15T12:43:16.406Z,19.70
2022-09-15T12:45:54.305Z,19.40
2022-09-15T12:48:31.986Z,19.20
2022-09-15T12:51:05.555Z,19.30
2022-09-15T12:53:46.323Z,19.30
2022-09-15T12:56:25.030Z,19.40
2022-09-15T12:58:53.396Z,19.20
2022-09-15T13:01:23.082Z,19.30
2022-09-15T13:03:49.913Z,19.30
2022-09-15T13:06:21.071Z,19.50
2022-09-15T13:08:51.757Z,19.60
2022-09-15T13:11:27.691Z,19.70
2022-09-15T13:14:03.209Z,19.70
2022-09-15T13:16:34.784Z,19.60
2022-09-15T13:19:32.801Z,19.60
2022-09-15T13:22:11.545Z,19.60
2022-09-15T13:25:01.597Z,19.60
2022-09-15T13:27:36.612Z,19.50
2022-09-15T13:30:22.106Z,19.40
2022-09-15T13:33:15.799Z,19.60
2022-09-15T13:35:51.946Z,19.60
2022-09-15T13:38:58.142Z,19.70
2022-09-15T13:41:56.980Z,19.60
2022-09-15T13:44:51.412Z,19.70
2022-09-15T13:47:37.874Z,19.70
2022-09-15T13:50:24.465Z,19.70
2022-09-15T13:53:16.076Z,19.70
2022-09-15T13:55:44.138Z,19.70
2022-09-15T14:01:05.782Z,19.60
2022-09-15T14:03:46.770Z,19.60
2022-09-15T14:06:17.675Z,19.50
2022-09-15T14:08:48.815Z,19.00
2022-09-15T14:11:21.586Z,18.80
2022-09-15T14:13:51.004Z,18.90
2022-09-15T14:16:27.909Z,18.90
2022-09-15T14:18:57.726Z,19.30
2022-09-15T14:21:27.569Z,19.40
2022-09-15T14:24:00.420Z,19.60
2022-09-15T14:26:29.788Z,19.10
2022-09-15T14:28:59.373Z,19.20
2022-09-15T14:31:36.922Z,19.20
2022-09-15T14:34:07.743Z,19.50
2022-09-15T14:36:35.190Z,19.40
2022-09-15T14:39:19.999Z,19.40
2022-09-15T14:41:47.739Z,19.50
2022-09-15T14:47:25.392Z,19.20
2022-09-15T14:50:08.075Z,19.40
2022-09-15T14:52:40.318Z,19.50
2022-09-15T14:55:14.111Z,19.50
2022-09-15T14:57:45.262Z,19.60
2022-09-15T15:00:21.327Z,19.40
2022-09-15T15:03:02.388Z,19.50
2022-09-15T15:05:35.937Z,19.60
2022-09-15T15:08:05.544Z,19.60
2022-09-15T15:10:35.830Z,19.60
2022-09-15T15:13:08.991Z,19.60
2022-09-15T15:15:38.416Z,19.60
2022-09-15T15:18:30.888Z,19.60
2022-09-15T15:20:58.961Z,19.60
2022-09-15T15:23:26.689Z,19.70
2022-09-15T15:25:54.015Z,19.80
2022-09-15T15:28:37.419Z,19.50
2022-09-15T15:31:15.088Z,19.50
2022-09-15T15:33:52.249Z,19.50
2022-09-15T15:36:27.401Z,19.60
2022-09-15T15:39:03.528Z,19.70
2022-09-15T15:41:35.130Z,19.50
2022-09-15T15:44:09.925Z,19.00
2022-09-15T15:46:57.415Z,18.70
2022-09-15T15:49:29.644Z,18.90
2022-09-15T15:51:58.367Z,19.20
2022-09-15T15:54:25.718Z,18.60
2022-09-15T15:56:53.385Z,18.50
2022-09-15T15:59:21.013Z,18.40
2022-09-15T16:01:51.380Z,18.40
2022-09-15T16:04:18.166Z,18.40
2022-09-15T16:06:46.273Z,17.90
2022-09-15T16:09:14.683Z,18.10
2022-09-15T16:11:43.093Z,18.40
2022-09-15T16:14:12.185Z,18.30
2022-09-15T16:16:38.934Z,17.90
2022-09-15T16:19:05.629Z,18.20
2022-09-15T16:21:43.170Z,18.50
2022-09-15T16:24:15.437Z,18.70
2022-09-15T16:26:43.029Z,18.20
2022-09-15T16:29:10.284Z,18.30
2022-09-15T16:31:37.415Z,18.20
2022-09-15T16:34:04.127Z,17.80
2022-09-15T16:36:34.976Z,17.70
2022-09-15T16:39:01.814Z,17.80
2022-09-15T16:41:28.537Z,17.70
2022-09-15T16:43:58.378Z,17.60
2022-09-15T16:46:25.275Z,17.70
2022-09-15T16:48:52.060Z,18.00
2022-09-15T16:51:28.713Z,18.00
2022-09-15T16:53:57.517Z,17.90
2022-09-15T16:56:24.354Z,17.40
2022-09-15T16:58:58.840Z,17.60
2022-09-15T17:01:26.007Z,17.40
2022-09-15T17:03:52.772Z,17.90
2022-09-15T17:06:20.992Z,17.90
2022-09-15T17:08:47.694Z,17.90
2022-09-15T17:11:19.692Z,17.70
2022-09-15T17:13:48.467Z,17.70
2022-09-15T17:16:19.448Z,17.40
2022-09-15T17:18:47.044Z,17.90
2022-09-15T17:21:16.361Z,17.70
2022-09-15T17:23:48.141Z,17.30
2022-09-15T17:26:20.101Z,18.00
2022-09-15T17:28:47.434Z,17.70
2022-09-15T17:31:17.204Z,17.40
2022-09-15T17:33:44.987Z,17.50
2022-09-15T17:36:12.287Z,17.40
2022-09-15T17:38:41.209Z,17.40
2022-09-15T17:41:15.108Z,17.50
2022-09-15T17:43:43.147Z,17.60
2022-09-15T17:46:09.989Z,17.70
2022-09-15T17:48:38.620Z,18.00
2022-09-15T17:51:07.101Z,18.20
2022-09-15T17:53:34.193Z,18.20
2022-09-15T17:56:01.100Z,17.90
2022-09-15T17:58:29.968Z,18.10
2022-09-15T18:00:59.205Z,18.20
2022-09-15T18:03:28.858Z,18.00
2022-09-15T18:05:58.432Z,18.30
2022-09-15T18:08:26.127Z,17.90
2022-09-15T18:10:53.083Z,18.20
2022-09-15T18:13:23.703Z,18.30
2022-09-15T18:15:56.101Z,18.50
2022-09-15T18:18:25.873Z,17.90
2022-09-15T18:20:54.408Z,17.90
2022-09-15T18:23:23.274Z,17.60
2022-09-15T18:25:50.659Z,17.70
2022-09-15T18:28:18.683Z,17.80
2022-09-15T18:30:50.059Z,17.50
2022-09-15T18:33:20.235Z,17.20
2022-09-15T18:35:48.578Z,17.30
2022-09-15T18:38:16.407Z,17.30
2022-09-15T18:40:55.241Z,17.30
2022-09-15T18:43:25.089Z,17.20
2022-09-15T18:45:57.877Z,16.80
2022-09-15T18:48:24.786Z,16.80
2022-09-15T18:50:53.095Z,17.00
2022-09-15T18:53:19.792Z,16.70
2022-09-15T18:55:46.496Z,17.10
2022-09-15T18:58:13.658Z,17.00
2022-09-15T19:00:40.671Z,17.10
2022-09-15T19:03:09.570Z,17.10
2022-09-15T19:05:36.414Z,17.10
2022-09-15T19:08:04.076Z,17.00
2022-09-15T19:10:31.381Z,17.20
2022-09-15T19:12:58.129Z,17.10
2022-09-15T19:15:24.929Z,16.90
2022-09-15T19:17:51.962Z,16.80
2022-09-15T19:20:19.075Z,16.80
2022-09-15T19:22:46.343Z,16.90
2022-09-15T19:25:13.582Z,17.00
2022-09-15T19:27:41.326Z,17.30
2022-09-15T19:30:10.026Z,17.90
2022-09-15T19:32:38.553Z,17.40
2022-09-15T19:35:06.474Z,17.00
2022-09-15T19:37:37.463Z,17.00
2022-09-15T19:40:08.313Z,16.90
2022-09-15T19:42:35.691Z,17.00
2022-09-15T19:45:02.474Z,16.90
2022-09-15T19:47:29.661Z,17.10
2022-09-15T19:49:56.436Z,16.90
2022-09-15T19:52:23.297Z,16.40
2022-09-15T19:54:50.020Z,16.60
2022-09-15T19:57:17.762Z,16.60
2022-09-15T19:59:44.825Z,16.40
2022-09-15T20:02:12.100Z,17.40
2022-09-15T20:07:24.248Z,17.20
2022-09-15T20:09:53.209Z,17.40
2022-09-15T20:14:47.658Z,17.10
2022-09-15T20:17:14.400Z,17.50
2022-09-15T20:19:41.402Z,17.40
2022-09-15T20:22:08.033Z,17.40
2022-09-15T20:24:34.846Z,17.50
2022-09-15T20:27:01.721Z,17.20
2022-09-15T20:29:28.780Z,17.30
2022-09-15T20:31:55.501Z,17.30
2022-09-15T20:34:22.209Z,16.40
2022-09-15T20:36:49.157Z,17.00
2022-09-15T20:39:18.699Z,16.70
2022-09-15T20:41:45.480Z,16.50
2022-09-15T20:44:12.732Z,16.70
2022-09-15T20:46:39.759Z,16.60
2022-09-15T20:49:06.904Z,16.30
2022-09-15T20:51:34.143Z,16.50
2022-09-15T20:54:03.331Z,16.70
2022-09-15T20:56:31.744Z,17.10
2022-09-15T20:58:59.890Z,17.50
2022-09-15T21:01:34.157Z,17.50
2022-09-15T21:04:01.178Z,17.50
2022-09-15T21:06:28.500Z,17.50
2022-09-15T21:08:56.731Z,17.40
2022-09-15T21:11:26.549Z,17.30
2022-09-15T21:13:53.633Z,17.10
2022-09-15T21:16:23.107Z,17.20
2022-09-15T21:18:51.241Z,17.40
2022-09-15T21:21:22.152Z,17.70
2022-09-15T21:23:54.335Z,17.70
2022-09-15T21:26:26.774Z,17.70
2022-09-15T21:28:54.631Z,17.60
2022-09-15T21:31:26.767Z,17.50
2022-09-15T21:33:55.744Z,17.50
2022-09-15T21:36:28.047Z,17.40
2022-09-15T21:38:56.426Z,17.60
2022-09-15T21:41:26.499Z,17.20
2022-09-15T21:43:58.410Z,17.40
2022-09-15T21:46:28.166Z,17.70
2022-09-15T21:48:57.495Z,17.60
2022-09-15T21:51:25.399Z,17.30
2022-09-15T21:53:57.391Z,17.30
2022-09-15T21:56:25.106Z,17.40
2022-09-15T21:58:51.996Z,17.40
2022-09-15T22:01:25.784Z,17.40
2022-09-15T22:03:54.061Z,17.40
2022-09-15T22:06:27.421Z,17.10
2022-09-15T22:08:55.361Z,16.90
2022-09-15T22:11:23.216Z,16.70
2022-09-15T22:13:49.999Z,16.70
2022-09-15T22:16:22.137Z,16.80
2022-09-15T22:18:49.561Z,16.90
2022-09-15T22:21:18.628Z,17.00
2022-09-15T22:23:47.315Z,16.90
2022-09-15T22:26:17.993Z,16.60
2022-09-15T22:28:44.903Z,16.70
2022-09-15T22:31:13.568Z,16.70
2022-09-15T22:33:42.370Z,16.60
2022-09-15T22:36:11.140Z,16.70
2022-09-15T22:38:38.642Z,16.90
2022-09-15T22:41:07.398Z,16.90
2022-09-15T22:43:34.101Z,17.10
2022-09-15T22:46:01.418Z,17.40
2022-09-15T22:48:28.826Z,17.20
2022-09-15T22:50:55.568Z,17.00
2022-09-15T22:53:23.428Z,17.00
2022-09-15T22:56:04.949Z,16.80
2022-09-15T22:58:33.065Z,16.90
2022-09-15T23:01:04.392Z,16.60
2022-09-15T23:03:31.272Z,16.20
2022-09-15T23:05:59.546Z,16.40
2022-09-15T23:08:26.573Z,16.30
2022-09-15T23:10:53.330Z,17.10
2022-09-15T23:13:20.037Z,16.90
2022-09-15T23:15:48.591Z,16.60
2022-09-15T23:18:15.570Z,16.10
2022-09-15T23:20:42.525Z,15.70
2022-09-15T23:23:09.190Z,15.70
2022-09-15T23:25:35.935Z,16.20
2022-09-15T23:28:02.636Z,16.50
2022-09-15T23:30:29.816Z,16.10
2022-09-15T23:32:58.575Z,15.70
2022-09-15T23:35:25.293Z,16.00
2022-09-15T23:37:51.944Z,16.70
2022-09-15T23:40:18.678Z,16.60
2022-09-15T23:42:45.474Z,16.20
2022-09-15T23:45:13.651Z,16.40
2022-09-15T23:47:40.468Z,16.20
2022-09-15T23:50:07.502Z,16.10
2022-09-15T23:52:34.213Z,16.20
2022-09-15T23:55:00.986Z,16.10
2022-09-15T23:57:27.696Z,15.90
2022-09-15T23:59:54.356Z,15.90
